Time;durP1;ratioP1;P1;durP2;ratioP2;P2;SDS_P1;SDS_P2;PMS_P1;PMS_P2;Temp;Humidity;BMP_temperature;BMP_pressure;BME280_temperature;BME280_humidity;BME280_pressure;Samples;Min_cycle;Max_cycle;Signal;HPM_P1;HPM_P2
2023/08/09 00:02:20;;;;;;;3.60;2.20;;;;;;;20.19;69.19;100620.40;108515;1281;21983;-63
2023/08/09 00:04:45;;;;;;;2.50;1.80;;;;;;;20.18;69.22;100619.40;108543;1282;21979;-68
2023/08/09 00:07:11;;;;;;;2.60;1.70;;;;;;;20.17;69.15;100624.23;108469;1270;21983;-68
2023/08/09 00:09:36;;;;;;;2.80;1.80;;;;;;;20.17;69.12;100622.85;108475;1276;21981;-64
2023/08/09 00:12:03;;;;;;;2.10;1.70;;;;;;;20.16;69.10;100621.25;108479;1281;21981;-68
2023/08/09 00:14:29;;;;;;;9.40;1.80;;;;;;;20.16;69.05;100619.33;108447;1282;21993;-64
2023/08/09 00:16:55;;;;;;;4.00;1.90;;;;;;;20.15;69.19;100619.35;108495;1281;23631;-63
2023/08/09 00:19:20;;;;;;;2.50;1.90;;;;;;;20.13;69.02;100616.40;108449;1281;21983;-65
2023/08/09 00:21:46;;;;;;;3.30;1.50;;;;;;;20.11;68.67;100618.83;108456;1282;21987;-68
2023/08/09 00:24:12;;;;;;;2.80;1.90;;;;;;;20.09;68.61;100618.94;108509;1278;21987;-64
2023/08/09 00:26:38;;;;;;;3.40;1.50;;;;;;;20.06;68.38;100620.50;108521;1279;22097;-68
2023/08/09 00:29:03;;;;;;;3.50;1.70;;;;;;;20.07;68.60;100623.15;108479;1276;21982;-68
2023/08/09 00:31:29;;;;;;;2.70;1.70;;;;;;;20.06;68.48;100627.09;108593;1277;21986;-68
2023/08/09 00:33:55;;;;;;;2.00;1.60;;;;;;;20.04;68.55;100627.18;108417;1277;22448;-64
2023/08/09 00:36:20;;;;;;;3.50;1.60;;;;;;;20.01;68.28;100628.58;108380;1282;22682;-63
2023/08/09 00:38:46;;;;;;;3.30;1.70;;;;;;;19.97;68.09;100624.86;108346;1282;23637;-64
2023/08/09 00:41:12;;;;;;;5.30;1.90;;;;;;;19.92;68.26;100624.02;108431;1274;22019;-67
2023/08/09 00:43:37;;;;;;;5.10;2.20;;;;;;;19.90;68.55;100624.98;108447;1281;21984;-68
2023/08/09 00:46:03;;;;;;;3.70;2.50;;;;;;;19.90;68.93;100625.36;108257;1283;21993;-68
2023/08/09 00:48:29;;;;;;;4.30;2.40;;;;;;;19.91;69.09;100621.02;108207;1280;21978;-68
2023/08/09 00:50:54;;;;;;;3.60;2.80;;;;;;;19.92;69.45;100618.65;108410;1281;21978;-68
2023/08/09 00:53:21;;;;;;;4.20;2.80;;;;;;;19.94;69.61;100619.66;108506;1281;21988;-64
2023/08/09 00:55:46;;;;;;;6.10;2.80;;;;;;;19.96;69.75;100619.02;108464;1277;22013;-68
2023/08/09 00:58:12;;;;;;;3.80;2.70;;;;;;;19.98;69.95;100617.85;108217;1280;21994;-63
2023/08/09 01:00:37;;;;;;;6.10;2.90;;;;;;;19.99;69.96;100618.89;108180;1280;24426;-68
2023/08/09 01:03:03;;;;;;;4.10;2.90;;;;;;;19.99;69.95;100622.96;108456;1282;21982;-63
2023/08/09 01:06:02;;;;;;;5.50;2.50;;;;;;;19.99;70.04;100621.55;108167;1282;21996;-63
2023/08/09 01:08:48;;;;;;;6.90;3.30;;;;;;;20.00;69.97;100619.21;108501;1282;21984;-64
2023/08/09 01:11:41;;;;;;;4.20;2.50;;;;;;;20.03;70.10;100618.89;108435;1277;21980;-64
2023/08/09 01:14:06;;;;;;;5.10;2.70;;;;;;;20.05;70.03;100617.54;108513;1277;21994;-69
2023/08/09 01:16:32;;;;;;;5.40;2.70;;;;;;;20.07;70.08;100619.95;108494;1280;21993;-64
2023/08/09 01:18:58;;;;;;;3.70;2.50;;;;;;;20.08;70.04;100619.38;108227;1282;22158;-63
2023/08/09 01:21:24;;;;;;;7.20;3.80;;;;;;;20.09;70.07;100618.02;108450;1281;21985;-63
2023/08/09 01:23:50;;;;;;;4.40;2.80;;;;;;;20.09;69.99;100618.77;108342;1282;21987;-68
2023/08/09 01:26:15;;;;;;;5.20;3.30;;;;;;;20.07;70.03;100617.95;108309;1279;21983;-70
2023/08/09 01:28:41;;;;;;;6.10;3.00;;;;;;;20.08;70.20;100620.23;108231;1282;21981;-69
2023/08/09 01:31:07;;;;;;;4.80;3.10;;;;;;;20.10;70.37;100616.40;108400;1274;22034;-69
2023/08/09 01:33:32;;;;;;;5.70;3.70;;;;;;;20.11;70.55;100616.48;108448;1281;22018;-63
2023/08/09 01:36:27;;;;;;;5.20;3.40;;;;;;;20.10;70.27;100617.27;108200;1281;22072;-63
2023/08/09 01:38:59;;;;;;;5.40;3.20;;;;;;;20.09;70.19;100619.27;108415;1282;21983;-63
2023/08/09 01:41:25;;;;;;;6.60;3.60;;;;;;;20.11;70.25;100620.05;108498;1280;23577;-63
2023/08/09 01:43:50;;;;;;;5.50;3.40;;;;;;;20.12;70.10;100624.31;108196;1282;21984;-69
2023/08/09 01:46:16;;;;;;;3.60;2.90;;;;;;;20.12;70.08;100626.98;108187;1284;21986;-63
2023/08/09 01:48:42;;;;;;;5.40;3.40;;;;;;;20.10;69.96;100632.05;108170;1280;22863;-64
2023/08/09 01:51:07;;;;;;;7.10;4.00;;;;;;;20.10;69.97;100634.23;108296;1282;23609;-69
2023/08/09 01:53:33;;;;;;;5.20;3.60;;;;;;;20.09;69.97;100632.85;108382;1282;21999;-63
2023/08/09 01:55:59;;;;;;;8.10;3.70;;;;;;;20.08;69.98;100633.27;108320;1282;22000;-69
2023/08/09 01:58:24;;;;;;;7.50;4.00;;;;;;;20.06;69.90;100635.46;108345;1282;21983;-63
2023/08/09 02:00:50;;;;;;;6.10;3.60;;;;;;;20.04;69.72;100633.93;108391;1279;24352;-69
2023/08/09 02:03:15;;;;;;;6.60;3.80;;;;;;;20.04;69.68;100634.50;108328;1282;21944;-69
2023/08/09 02:05:42;;;;;;;5.30;3.50;;;;;;;20.02;69.61;100637.62;108363;1282;21977;-69
2023/08/09 02:08:07;;;;;;;8.00;3.40;;;;;;;19.99;69.51;100638.81;108368;1282;23329;-69
2023/08/09 02:10:33;;;;;;;5.40;3.20;;;;;;;19.95;69.49;100638.33;108339;1282;22021;-63
2023/08/09 02:12:59;;;;;;;4.70;2.70;;;;;;;19.90;69.61;100639.77;108356;1282;21999;-62
2023/08/09 02:15:24;;;;;;;5.50;2.90;;;;;;;19.87;69.66;100642.41;108344;1279;21981;-70
2023/08/09 02:17:50;;;;;;;5.70;2.50;;;;;;;19.85;69.84;100647.64;108369;1282;21986;-63
2023/08/09 02:20:16;;;;;;;3.30;2.40;;;;;;;19.86;69.94;100653.50;108347;1282;23712;-70
2023/08/09 02:22:43;;;;;;;4.80;2.60;;;;;;;19.86;69.91;100653.67;108372;1277;23714;-69
2023/08/09 02:25:12;;;;;;;3.80;2.10;;;;;;;19.87;69.97;100651.81;108383;1281;23662;-70
2023/08/09 02:27:39;;;;;;;5.60;2.20;;;;;;;19.88;69.92;100652.48;108348;1281;21983;-63
2023/08/09 02:30:06;;;;;;;6.20;2.60;;;;;;;19.90;69.84;100656.36;108159;1282;21986;-70
2023/08/09 02:32:32;;;;;;;4.30;2.40;;;;;;;19.90;69.70;100660.59;108321;1281;22282;-62
2023/08/09 02:34:58;;;;;;;7.40;2.90;;;;;;;19.91;69.76;100666.61;108539;1277;23609;-69
2023/08/09 02:37:24;;;;;;;5.50;2.50;;;;;;;19.91;69.63;100667.50;108516;1281;21977;-63
2023/08/09 02:39:50;;;;;;;5.30;2.80;;;;;;;19.90;69.41;100667.91;108520;1282;22152;-71
2023/08/09 02:42:16;;;;;;;4.80;2.70;;;;;;;19.88;69.20;100667.28;108467;1277;21995;-71
2023/08/09 02:44:42;;;;;;;4.30;2.40;;;;;;;19.85;69.17;100670.62;108548;1275;21983;-71
2023/08/09 02:47:08;;;;;;;6.60;2.60;;;;;;;19.84;69.01;100679.23;108507;1280;21998;-65
2023/08/09 02:49:34;;;;;;;4.30;2.30;;;;;;;19.83;69.01;100682.13;108502;1277;22454;-64
2023/08/09 02:52:00;;;;;;;4.60;2.30;;;;;;;19.81;68.92;100688.41;108383;1282;22727;-64
2023/08/09 02:54:25;;;;;;;4.20;2.60;;;;;;;19.80;68.80;100691.88;108372;1281;21974;-64
2023/08/09 02:56:51;;;;;;;6.50;2.40;;;;;;;19.77;68.60;100693.41;108199;1282;21987;-72
2023/08/09 02:59:16;;;;;;;4.70;2.40;;;;;;;19.75;68.69;100693.31;108380;1279;21992;-64
2023/08/09 03:01:44;;;;;;;3.70;2.30;;;;;;;19.73;68.65;100695.92;108431;1274;21981;-64
2023/08/09 03:04:09;;;;;;;5.00;2.40;;;;;;;19.72;68.59;100696.31;108490;1277;21983;-63
2023/08/09 03:06:35;;;;;;;5.10;2.20;;;;;;;19.71;68.65;100701.15;108388;1282;21980;-72
2023/08/09 03:09:02;;;;;;;3.60;2.00;;;;;;;19.70;68.59;100703.48;108341;1282;23631;-72
2023/08/09 03:11:28;;;;;;;4.10;2.30;;;;;;;19.69;68.53;100704.81;108463;1281;21997;-64
2023/08/09 03:13:54;;;;;;;4.60;2.00;;;;;;;19.67;68.80;100704.91;108373;1282;23605;-71
2023/08/09 03:16:20;;;;;;;7.60;2.20;;;;;;;19.66;68.91;100707.23;108408;1282;22041;-64
2023/08/09 03:18:46;;;;;;;4.10;2.10;;;;;;;19.67;69.13;100713.80;108452;1281;23593;-71
2023/08/09 03:21:12;;;;;;;4.70;2.20;;;;;;;19.67;69.16;100713.61;108383;1277;21986;-72
2023/08/09 03:23:41;;;;;;;4.60;2.10;;;;;;;19.69;68.98;100716.91;108419;1282;21983;-71
2023/08/09 03:26:06;;;;;;;6.80;2.10;;;;;;;19.71;68.84;100718.27;108439;1282;21983;-64
2023/08/09 03:28:32;;;;;;;8.10;2.90;;;;;;;19.70;68.92;100719.35;108438;1281;21988;-71
2023/08/09 03:30:58;;;;;;;6.00;2.50;;;;;;;19.72;69.26;100717.50;108413;1280;22039;-64
2023/08/09 03:33:25;;;;;;;8.40;2.50;;;;;;;19.73;69.47;100718.69;108417;1281;21983;-72
2023/08/09 03:35:51;;;;;;;3.50;2.10;;;;;;;19.74;69.57;100716.50;108520;1281;21971;-72
2023/08/09 03:38:17;;;;;;;3.50;1.70;;;;;;;19.76;69.69;100718.01;108497;1277;22037;-64
2023/08/09 03:40:43;;;;;;;4.60;2.20;;;;;;;19.80;70.10;100721.39;108368;1282;21986;-72
2023/08/09 03:43:08;;;;;;;3.40;2.20;;;;;;;19.81;70.08;100718.51;108364;1282;21986;-71
2023/08/09 03:45:34;;;;;;;4.90;2.00;;;;;;;19.84;70.44;100719.44;108365;1282;21998;-64
2023/08/09 03:47:59;;;;;;;6.10;1.80;;;;;;;19.91;70.69;100720.73;108381;1276;23773;-71
2023/08/09 03:50:25;;;;;;;3.00;1.80;;;;;;;19.99;70.92;100724.83;108348;1282;21983;-65
2023/08/09 03:52:52;;;;;;;5.30;2.00;;;;;;;20.07;71.42;100728.38;108383;1278;22025;-65
2023/08/09 03:55:17;;;;;;;6.00;2.20;;;;;;;20.14;71.20;100730.39;108384;1282;21993;-65
2023/08/09 03:57:43;;;;;;;4.10;2.20;;;;;;;20.21;71.15;100729.34;108366;1277;23653;-65
2023/08/09 04:00:13;;;;;;;3.00;1.90;;;;;;;20.28;71.29;100730.48;108369;1283;21974;-70
2023/08/09 04:02:39;;;;;;;2.50;1.60;;;;;;;20.33;71.32;100731.43;108375;1277;22059;-66
2023/08/09 04:05:05;;;;;;;5.50;2.00;;;;;;;20.41;71.47;100733.39;108341;1282;21988;-66
2023/08/09 04:07:31;;;;;;;4.20;2.00;;;;;;;20.47;71.51;100738.09;108441;1282;21982;-69
2023/08/09 04:09:56;;;;;;;4.60;2.30;;;;;;;20.52;72.05;100738.96;108333;1282;21980;-69
2023/08/09 04:12:22;;;;;;;5.10;2.00;;;;;;;20.56;71.81;100744.25;108404;1281;21984;-66
2023/08/09 04:14:48;;;;;;;3.70;2.00;;;;;;;20.63;72.44;100747.31;108385;1282;21979;-68
2023/08/09 04:17:14;;;;;;;3.30;2.20;;;;;;;20.71;72.49;100750.35;108161;1284;22006;-68
2023/08/09 04:19:39;;;;;;;3.50;2.30;;;;;;;20.77;72.28;100756.48;108312;1282;21984;-67
2023/08/09 04:22:05;;;;;;;3.60;2.30;;;;;;;20.84;72.68;100758.30;108361;1282;21986;-66
2023/08/09 04:24:31;;;;;;;2.70;1.60;;;;;;;20.92;72.97;100758.96;108348;1282;23120;-68
2023/08/09 04:26:56;;;;;;;4.60;2.20;;;;;;;21.02;72.93;100758.66;108362;1282;21984;-67
2023/08/09 04:29:22;;;;;;;4.40;2.30;;;;;;;21.12;73.20;100758.15;108375;1281;22006;-68
2023/08/09 04:31:48;;;;;;;3.60;2.00;;;;;;;21.21;72.90;100758.04;108391;1282;21980;-67
2023/08/09 04:34:13;;;;;;;3.90;1.90;;;;;;;21.29;73.03;100758.53;108369;1277;21989;-67
2023/08/09 04:36:39;;;;;;;4.10;2.00;;;;;;;21.39;73.20;100761.23;108356;1282;21984;-67
2023/08/09 04:39:08;;;;;;;3.50;2.10;;;;;;;21.48;72.95;100758.45;108361;1282;21981;-67
2023/08/09 04:41:35;;;;;;;4.30;2.20;;;;;;;21.54;73.06;100759.73;108419;1280;21986;-67
2023/08/09 04:44:01;;;;;;;4.70;2.20;;;;;;;21.60;72.80;100761.78;108183;1283;21963;-68
2023/08/09 04:46:28;;;;;;;3.70;2.30;;;;;;;21.65;72.55;100766.88;108295;1282;22454;-67
2023/08/09 04:48:54;;;;;;;6.20;2.20;;;;;;;21.73;73.08;100773.29;108413;1282;21972;-66
2023/08/09 04:51:20;;;;;;;5.00;2.30;;;;;;;21.80;72.90;100773.08;108337;1280;22154;-66
2023/08/09 04:53:45;;;;;;;4.10;2.10;;;;;;;21.88;72.94;100775.55;108317;1282;22022;-68
2023/08/09 04:56:11;;;;;;;4.60;2.00;;;;;;;21.94;72.45;100772.19;108342;1282;22167;-66
2023/08/09 04:58:37;;;;;;;5.00;2.00;;;;;;;21.98;73.07;100771.45;108154;1282;21983;-65
2023/08/09 05:01:03;;;;;;;4.00;2.30;;;;;;;22.05;72.89;100774.08;108391;1282;21980;-66
2023/08/09 05:03:29;;;;;;;6.30;4.90;;;;;;;22.12;72.64;100778.13;108366;1283;21983;-65
2023/08/09 05:05:54;;;;;;;7.80;7.00;;;;;;;22.13;73.22;100779.20;108356;1282;21990;-65
2023/08/09 05:08:20;;;;;;;5.10;3.10;;;;;;;22.26;73.08;100781.67;108382;1280;21986;-68
2023/08/09 05:10:46;;;;;;;7.60;5.40;;;;;;;22.39;73.34;100780.60;108384;1277;21981;-64
2023/08/09 05:13:12;;;;;;;15.30;9.50;;;;;;;22.52;73.84;100786.56;108494;1281;22932;-65
2023/08/09 05:15:38;;;;;;;6.20;4.00;;;;;;;22.65;73.97;100788.18;108474;1276;22446;-71
2023/08/09 05:18:04;;;;;;;5.30;2.50;;;;;;;22.77;73.70;100789.80;108641;1282;22021;-63
2023/08/09 05:20:33;;;;;;;3.30;2.40;;;;;;;22.87;73.42;100792.98;108699;1281;21993;-64
2023/08/09 05:22:59;;;;;;;8.90;2.80;;;;;;;22.96;73.48;100793.23;108532;1279;22021;-69
2023/08/09 05:25:25;;;;;;;3.60;2.30;;;;;;;23.04;73.73;100797.00;108392;1282;21983;-62
2023/08/09 05:27:51;;;;;;;3.90;2.70;;;;;;;23.15;74.02;100800.36;108666;1281;21978;-66
2023/08/09 05:30:19;;;;;;;5.20;2.50;;;;;;;23.24;72.89;100801.83;108474;1277;21993;-63
2023/08/09 05:32:45;;;;;;;3.20;2.40;;;;;;;23.29;72.58;100802.42;108382;1281;22001;-65
2023/08/09 05:35:10;;;;;;;4.40;2.40;;;;;;;23.35;72.50;100801.92;108682;1281;22418;-69
2023/08/09 05:37:37;;;;;;;5.50;2.60;;;;;;;23.41;72.57;100802.77;108542;1278;22000;-62
2023/08/09 05:40:05;;;;;;;5.00;2.50;;;;;;;23.49;72.52;100804.47;108924;1277;21984;-71
2023/08/09 05:42:31;;;;;;;4.40;2.30;;;;;;;23.56;72.24;100806.20;109960;1281;22187;-69
2023/08/09 05:44:59;;;;;;;3.60;2.50;;;;;;;23.62;71.76;100801.03;108509;1277;21983;-69
2023/08/09 05:47:24;;;;;;;7.20;2.50;;;;;;;23.67;71.86;100803.02;108561;1278;22145;-70
2023/08/09 05:49:50;;;;;;;5.80;2.90;;;;;;;23.75;72.40;100800.41;108500;1281;21993;-62
2023/08/09 05:52:16;;;;;;;8.20;2.70;;;;;;;23.82;72.14;100798.36;108627;1278;21991;-70
2023/08/09 05:54:42;;;;;;;4.20;2.30;;;;;;;23.91;72.66;100798.71;108593;1277;22134;-62
2023/08/09 05:57:07;;;;;;;7.80;2.60;;;;;;;24.03;72.23;100801.61;108563;1281;22077;-70
2023/08/09 05:59:33;;;;;;;4.10;2.50;;;;;;;24.13;72.11;100802.20;108327;1281;22042;-70
2023/08/09 06:01:59;;;;;;;5.90;2.50;;;;;;;24.22;71.74;100807.40;108586;1281;21980;-61
2023/08/09 06:04:27;;;;;;;6.70;2.70;;;;;;;24.33;72.08;100810.27;108630;1281;21991;-62
2023/08/09 06:06:52;;;;;;;4.20;2.20;;;;;;;24.45;71.84;100810.43;108605;1282;22454;-69
2023/08/09 06:09:18;;;;;;;6.60;2.50;;;;;;;24.56;71.66;100808.67;108576;1274;21982;-70
2023/08/09 06:11:44;;;;;;;4.70;2.40;;;;;;;24.67;71.77;100811.36;108598;1281;22015;-71
2023/08/09 06:14:09;;;;;;;3.80;2.50;;;;;;;24.80;71.39;100811.09;108592;1274;22043;-62
2023/08/09 06:16:35;;;;;;;5.10;3.20;;;;;;;24.93;72.07;100813.11;108557;1277;21985;-62
2023/08/09 06:19:00;;;;;;;4.50;2.80;;;;;;;25.12;73.03;100813.48;108619;1278;21983;-62
2023/08/09 06:21:26;;;;;;;4.30;2.80;;;;;;;25.34;72.49;100817.56;108550;1282;21954;-63
2023/08/09 06:23:52;;;;;;;5.30;2.10;;;;;;;25.53;71.70;100816.00;108469;1282;21998;-62
2023/08/09 06:26:18;;;;;;;4.60;2.90;;;;;;;25.70;71.91;100820.58;108574;1282;21991;-70
2023/08/09 06:28:43;;;;;;;3.50;2.30;;;;;;;25.87;71.83;100824.63;108544;1282;22021;-61
2023/08/09 06:31:09;;;;;;;5.50;2.40;;;;;;;26.06;71.92;100822.01;108636;1278;22023;-70
2023/08/09 06:33:41;;;;;;;4.50;2.30;;;;;;;26.27;71.99;100819.48;108438;1280;21979;-71
2023/08/09 06:36:07;;;;;;;3.00;2.00;;;;;;;26.47;70.84;100822.38;108537;1282;21980;-63
2023/08/09 06:38:32;;;;;;;6.20;2.40;;;;;;;26.62;70.08;100822.73;108615;1282;21985;-71
2023/08/09 06:40:58;;;;;;;5.10;2.70;;;;;;;26.80;70.16;100820.75;108551;1282;22024;-61
2023/08/09 06:43:24;;;;;;;4.40;2.70;;;;;;;26.98;69.55;100819.98;108436;1282;21983;-62
2023/08/09 06:45:51;;;;;;;5.20;2.50;;;;;;;27.16;69.86;100818.05;108472;1280;22002;-71
2023/08/09 06:48:17;;;;;;;3.00;1.80;;;;;;;27.35;68.82;100820.95;108680;1280;23637;-61
2023/08/09 06:50:43;;;;;;;4.20;2.10;;;;;;;27.46;67.46;100817.63;108566;1281;21990;-62
2023/08/09 06:53:08;;;;;;;3.00;2.00;;;;;;;27.55;67.02;100816.77;108502;1277;22022;-62
2023/08/09 06:55:34;;;;;;;5.70;2.50;;;;;;;27.68;67.77;100820.30;108613;1281;21972;-62
2023/08/09 06:58:00;;;;;;;4.10;2.40;;;;;;;27.89;68.06;100822.80;108574;1281;21980;-71
2023/08/09 07:00:25;;;;;;;3.90;2.40;;;;;;;28.09;67.05;100819.81;108518;1281;21985;-72
2023/08/09 07:02:51;;;;;;;3.60;2.00;;;;;;;28.29;67.17;100820.00;108376;1280;21983;-61
2023/08/09 07:05:19;;;;;;;4.60;2.00;;;;;;;28.50;66.77;100821.78;108669;1277;22156;-61
2023/08/09 07:07:45;;;;;;;5.70;2.50;;;;;;;28.66;66.09;100819.94;108361;1282;21976;-71
2023/08/09 07:10:12;;;;;;;3.90;2.40;;;;;;;28.84;65.76;100819.91;108423;1280;21989;-61
2023/08/09 07:12:39;;;;;;;4.90;2.30;;;;;;;29.04;65.76;100816.70;108686;1282;22658;-61
2023/08/09 07:15:08;;;;;;;4.20;2.20;;;;;;;29.22;65.03;100814.09;108761;1282;22550;-72
2023/08/09 07:17:35;;;;;;;3.30;2.10;;;;;;;29.38;64.65;100812.05;108933;1280;22736;-62
2023/08/09 07:20:02;;;;;;;4.30;2.30;;;;;;;29.54;63.79;100806.35;108367;1274;21985;-60
2023/08/09 07:22:28;;;;;;;3.40;2.10;;;;;;;29.66;62.10;100803.73;108618;1280;21985;-61
2023/08/09 07:24:53;;;;;;;5.10;2.30;;;;;;;29.70;61.01;100805.16;108390;1281;21985;-72
2023/08/09 07:27:19;;;;;;;3.20;2.20;;;;;;;29.73;60.70;100807.61;108196;1281;21980;-71
2023/08/09 07:29:45;;;;;;;5.80;3.80;;;;;;;29.84;61.10;100807.92;108438;1280;22001;-61
2023/08/09 07:32:10;;;;;;;5.50;4.00;;;;;;;30.07;61.49;100812.48;108251;1280;21985;-62
2023/08/09 07:34:36;;;;;;;6.20;3.00;;;;;;;30.34;61.55;100812.45;108252;1282;22224;-74
2023/08/09 07:37:02;;;;;;;2.80;2.00;;;;;;;30.54;59.53;100814.33;108530;1274;21979;-74
2023/08/09 07:39:28;;;;;;;3.40;2.10;;;;;;;30.56;58.31;100812.11;108243;1281;21991;-60
2023/08/09 07:41:54;;;;;;;7.00;2.40;;;;;;;30.58;57.93;100809.45;108466;1281;21985;-74
2023/08/09 07:44:20;;;;;;;3.40;2.20;;;;;;;30.65;58.45;100812.43;108442;1281;22073;-72
2023/08/09 07:46:46;;;;;;;4.10;2.20;;;;;;;30.85;59.29;100813.38;108459;1281;22021;-60
2023/08/09 07:49:11;;;;;;;4.80;2.20;;;;;;;31.07;57.80;100815.31;108489;1281;21988;-73
2023/08/09 07:51:37;;;;;;;3.30;1.80;;;;;;;31.18;56.86;100812.30;108462;1281;22000;-72
2023/08/09 07:54:03;;;;;;;7.10;2.00;;;;;;;31.32;57.09;100810.64;108440;1281;21984;-60
2023/08/09 07:56:29;;;;;;;3.70;2.10;;;;;;;31.55;56.73;100805.67;108494;1275;21992;-61
2023/08/09 07:58:54;;;;;;;2.40;1.70;;;;;;;31.77;56.99;100803.09;108464;1277;21984;-61
2023/08/09 08:01:20;;;;;;;4.40;2.10;;;;;;;31.94;55.78;100805.80;108469;1273;21995;-65
2023/08/09 08:03:45;;;;;;;2.80;1.80;;;;;;;31.98;54.92;100805.98;108476;1281;21979;-74
2023/08/09 08:06:11;;;;;;;3.00;1.80;;;;;;;32.08;53.20;100800.95;108232;1281;21992;-61
2023/08/09 08:08:37;;;;;;;3.50;1.70;;;;;;;32.25;54.26;100800.60;108513;1281;21980;-74
2023/08/09 08:11:03;;;;;;;2.90;2.10;;;;;;;32.47;54.75;100797.20;108396;1282;21994;-73
2023/08/09 08:13:29;;;;;;;2.80;1.80;;;;;;;32.75;54.23;100794.10;108359;1282;22245;-61
2023/08/09 08:15:54;;;;;;;2.80;1.60;;;;;;;32.95;53.10;100791.39;108371;1280;21991;-72
2023/08/09 08:18:20;;;;;;;4.00;1.70;;;;;;;33.15;53.18;100791.58;108434;1281;21983;-61
2023/08/09 08:20:46;;;;;;;2.90;1.90;;;;;;;33.41;53.26;100795.70;108441;1281;21979;-73
2023/08/09 08:23:12;;;;;;;3.00;1.70;;;;;;;33.65;52.80;100795.02;108491;1282;21990;-72
2023/08/09 08:25:38;;;;;;;5.70;1.90;;;;;;;33.83;51.99;100793.34;108410;1281;22230;-61
2023/08/09 08:28:04;;;;;;;2.80;1.50;;;;;;;33.92;50.49;100794.24;108436;1273;21983;-61
2023/08/09 08:30:30;;;;;;;5.00;1.60;;;;;;;34.03;50.46;100798.16;108397;1282;21973;-72
2023/08/09 08:32:56;;;;;;;2.40;1.30;;;;;;;34.15;49.25;100795.15;108382;1274;22005;-72
2023/08/09 08:35:24;;;;;;;3.00;1.30;;;;;;;34.24;49.59;100791.12;108392;1281;21992;-72
2023/08/09 08:37:50;;;;;;;2.90;1.60;;;;;;;34.41;48.46;100789.14;108447;1278;21982;-61
2023/08/09 08:40:20;;;;;;;2.90;1.50;;;;;;;34.43;48.14;100792.00;108391;1281;21985;-74
2023/08/09 08:42:49;;;;;;;11.20;7.60;;;;;;;34.47;47.26;100786.31;108329;1282;21983;-74
2023/08/09 08:45:15;;;;;;;18.70;9.70;;;;;;;34.54;46.17;100791.77;108531;1283;21988;-62
2023/08/09 08:47:42;;;;;;;7.90;5.10;;;;;;;34.53;46.35;100790.60;108436;1276;22150;-62
2023/08/09 08:50:09;;;;;;;6.00;2.50;;;;;;;34.61;46.39;100788.73;108515;1278;21980;-74
2023/08/09 08:52:37;;;;;;;3.60;1.70;;;;;;;34.81;46.66;100790.10;110243;1282;21990;-75
2023/08/09 08:55:06;;;;;;;3.80;1.80;;;;;;;34.99;46.12;100791.42;108451;1281;21986;-62
2023/08/09 08:57:32;;;;;;;2.20;1.30;;;;;;;35.03;45.47;100788.41;108436;1272;22464;-62
2023/08/09 08:59:58;;;;;;;2.90;1.50;;;;;;;35.02;44.88;100790.20;108476;1281;21991;-75
2023/08/09 09:02:23;;;;;;;4.00;1.30;;;;;;;35.06;44.99;100787.54;108216;1282;22042;-62
2023/08/09 09:04:49;;;;;;;3.60;1.60;;;;;;;35.24;45.55;100783.74;108435;1282;21977;-62
2023/08/09 09:07:15;;;;;;;3.70;1.70;;;;;;;35.47;45.28;100784.29;108538;1282;22007;-62
2023/08/09 09:10:00;;;;;;;1.90;1.30;;;;;;;35.63;43.69;100782.55;108317;1277;21983;-77
2023/08/09 09:12:26;;;;;;;3.60;1.60;;;;;;;35.66;43.41;100783.10;108242;1283;21986;-61
2023/08/09 09:14:52;;;;;;;2.40;1.40;;;;;;;35.73;43.23;100781.58;108346;1280;21986;-63
2023/08/09 09:17:19;;;;;;;2.00;1.20;;;;;;;35.84;43.37;100782.94;108426;1282;21982;-62
2023/08/09 09:19:44;;;;;;;4.20;1.40;;;;;;;35.99;42.79;100785.65;108476;1272;21986;-61
2023/08/09 09:22:10;;;;;;;1.90;1.10;;;;;;;36.12;41.51;100786.67;108364;1282;22169;-62
2023/08/09 09:24:36;;;;;;;2.90;1.40;;;;;;;36.12;41.05;100784.02;108295;1278;22108;-73
2023/08/09 09:27:01;;;;;;;2.30;1.10;;;;;;;36.10;41.18;100782.95;108518;1281;21999;-61
2023/08/09 09:29:31;;;;;;;2.50;1.10;;;;;;;36.19;41.00;100779.77;108446;1278;21972;-61
2023/08/09 09:31:59;;;;;;;2.10;1.20;;;;;;;36.25;40.97;100773.48;108503;1278;22017;-75
2023/08/09 09:34:30;;;;;;;2.80;1.20;;;;;;;36.38;39.77;100770.70;108483;1281;21991;-77
2023/08/09 09:36:55;;;;;;;3.00;1.20;;;;;;;36.35;38.69;100771.61;108440;1271;21995;-75
2023/08/09 09:39:21;;;;;;;3.50;1.70;;;;;;;36.30;39.39;100775.08;108480;1280;21992;-61
2023/08/09 09:41:48;;;;;;;8.50;5.80;;;;;;;36.36;39.57;100774.07;108439;1281;22009;-62
2023/08/09 09:44:20;;;;;;;7.40;4.50;;;;;;;36.39;38.82;100770.83;108495;1281;21987;-77
2023/08/09 09:46:45;;;;;;;7.00;4.10;;;;;;;36.39;39.08;100766.02;108513;1273;21987;-62
2023/08/09 09:49:11;;;;;;;3.10;1.70;;;;;;;36.53;39.34;100763.52;108522;1281;21970;-62
2023/08/09 09:51:40;;;;;;;2.00;1.30;;;;;;;36.67;38.91;100766.64;108398;1280;21985;-78
2023/08/09 09:54:06;;;;;;;2.10;1.20;;;;;;;36.71;38.86;100762.30;108440;1282;21989;-77
2023/08/09 09:56:32;;;;;;;4.60;1.10;;;;;;;36.95;39.46;100758.97;108242;1281;21981;-61
2023/08/09 09:58:58;;;;;;;1.50;0.80;;;;;;;37.20;38.87;100752.88;108535;1282;21980;-61
2023/08/09 10:01:24;;;;;;;4.30;1.20;;;;;;;37.34;38.50;100752.67;108458;1277;21995;-61
2023/08/09 10:03:58;;;;;;;3.00;1.00;;;;;;;37.44;37.61;100752.63;108271;1280;21978;-62
2023/08/09 10:06:29;;;;;;;1.70;1.10;;;;;;;37.41;37.73;100747.25;108449;1281;21991;-77
2023/08/09 10:08:56;;;;;;;1.70;1.00;;;;;;;37.56;37.86;100748.90;108225;1283;21997;-75
2023/08/09 10:11:23;;;;;;;1.60;0.80;;;;;;;37.80;37.45;100747.29;108399;1271;22232;-61
2023/08/09 10:13:48;;;;;;;4.10;2.20;;;;;;;38.01;37.54;100753.55;108438;1276;22023;-75
2023/08/09 10:16:14;;;;;;;3.20;1.60;;;;;;;38.03;36.70;100752.55;108240;1281;21982;-77
2023/08/09 10:18:41;;;;;;;2.60;1.10;;;;;;;38.00;36.76;100755.73;108276;1281;21995;-77
2023/08/09 10:21:08;;;;;;;1.50;1.00;;;;;;;38.02;36.50;100759.14;108207;1283;21974;-60
2023/08/09 10:23:34;;;;;;;5.50;1.30;;;;;;;38.04;36.32;100753.93;108368;1280;21986;-78
2023/08/09 10:25:59;;;;;;;2.20;0.90;;;;;;;38.14;36.45;100754.56;108378;1278;21995;-77
2023/08/09 10:28:45;;;;;;;2.90;0.80;;;;;;;38.15;35.83;100755.75;108410;1281;21981;-60
2023/08/09 10:31:13;;;;;;;1.90;0.90;;;;;;;38.01;34.22;100754.30;108428;1281;21986;-60
2023/08/09 10:34:07;;;;;;;2.20;0.80;;;;;;;37.88;34.52;100752.43;108471;1280;21988;-60
2023/08/09 10:36:33;;;;;;;3.50;0.80;;;;;;;37.90;34.98;100749.55;108392;1280;21998;-79
2023/08/09 10:39:08;;;;;;;6.40;0.90;;;;;;;38.10;35.42;100745.52;108318;1270;23685;-61
2023/08/09 10:41:33;;;;;;;3.20;0.90;;;;;;;38.23;34.80;100745.49;108439;1281;22009;-61
2023/08/09 10:44:03;;;;;;;1.40;0.80;;;;;;;38.31;34.69;100744.54;108371;1280;21986;-79
2023/08/09 10:46:32;;;;;;;1.40;0.80;;;;;;;38.36;34.58;100741.04;108419;1277;21984;-61
2023/08/09 10:49:03;;;;;;;3.60;0.90;;;;;;;38.38;34.79;100738.02;108438;1281;21986;-61
2023/08/09 10:51:29;;;;;;;2.00;1.00;;;;;;;38.52;34.79;100734.91;108473;1277;21986;-77
2023/08/09 10:54:05;;;;;;;2.90;1.10;;;;;;;38.58;34.51;100733.17;108465;1282;22155;-78
2023/08/09 10:56:34;;;;;;;1.60;1.10;;;;;;;38.64;34.43;100734.13;108339;1283;22089;-61
2023/08/09 10:59:07;;;;;;;3.60;1.00;;;;;;;38.76;34.24;100730.48;108402;1277;22238;-60
2023/08/09 11:01:34;;;;;;;3.00;0.90;;;;;;;38.79;34.50;100731.06;108590;1276;21982;-60
2023/08/09 11:04:01;;;;;;;1.40;0.90;;;;;;;38.92;34.60;100729.21;108526;1276;21983;-60
2023/08/09 11:06:41;;;;;;;3.00;0.90;;;;;;;39.10;34.07;100725.66;108497;1280;22043;-60
2023/08/09 11:09:14;;;;;;;2.10;1.00;;;;;;;39.15;34.13;100727.23;108406;1281;21990;-60
2023/08/09 11:11:41;;;;;;;2.70;1.00;;;;;;;39.17;34.16;100731.33;108481;1282;21980;-60
2023/08/09 11:14:08;;;;;;;2.70;1.10;;;;;;;39.14;33.25;100727.14;108475;1278;22015;-75
2023/08/09 11:16:33;;;;;;;3.30;0.90;;;;;;;38.94;33.03;100726.48;108433;1281;21984;-60